Haines Airport
PAHN : now visible

Airfield :











YOU CAN JOIN US ON...

 
LOGIN :

Register | Disclaimer

   EN    FR    IT 

 









Legend :    VFR   Marginal VFR   IFR   Intensive IFR   Very Intensive IFR
Visi :
Ceiling :
>= 8 km
>= 3000ft
5 to 8 km
1000 to 3000 ft
1500m to 5 km
500 to 1000 ft
800 to 1500m
200 to 500 ft
< 800m
< 200 ft
Symbols :   Thunderstorms  Fog  Heavy snow  Heavy precipitations  Wind > 20 kt






- Airport Elevation : 15 ft
- IATA code : HNS


PAHN - Haines

CURRENT METAR :
  • 240554Z AUTO 31008KT 9SM OVC043 00/M03 A2998 RMK SLP154 60000 T00001028 10006 21006 51036 TSNO VIA AUTODIAL

EXPIRED METARs :
  • 240454Z AUTO 30006KT 10SM OVC049 00/M02 A2995 RMK SLP144 T00001022 TSNO VIA AUTODIAL
  • 240354Z AUTO 30008KT 10SM BKN030 OVC040 00/M02 A2991 RMK SNE24 SLP131 P0000 T00001017 TSNO VIA AUTODIAL

TAF PAHN
Valid from the 24 at 06:00 until the 25 at 06:00 UTC


240520Z 2406/2506 30008KT P6SM -SHSN SCT025 OVC035
FM241000 29009KT 1 1/2SM -SHSN OVC015
FM241500 30010KT 6SM -SHSN BR BKN025 OVC035
FM250000 30012KT P6SM BKN050 AMD LTD TO CLD VIS AND WIND



MET'MAP, your aeronautical weather chart ! - Copyright ORBIFLY December 2007 - Disclaimer

ORBIFLY MET'MAP TEAM :

Programming & Development : Alexandra Zaïnal
Concept & original design : Baudouin d'Aumeries
Assistance for programming : Marc-Olivier Méhu
Technical & hardware support : Manuel Goepfert

Contact : metmap@orbifly.com




SOURCES & CREDITS :

   NOAA       Earth
Advisory